Aérodrome :
LOGIN :

S'inscrire | Disclaimer

   EN    FR    IT 

 










Légende :    VFR   VFR Marginal   IFR   IFR Intensif   IFR Très Intensif
Visi : 
Plafond : 
>= 8 km
>= 3000ft
5 à 8 km
1000 à 3000 ft
1500m à 5 km
500 à 1000 ft
800 à 1500m
200 à 500 ft
< 800m
< 200 ft
Symboles :   Orages  Brouillard  Fortes neiges  Fortes précipitations  Vent > 20 kt
SIGMETs :   Divers  Orages  Givrage  Turbulence  Onde Orograph.  Cendres Volcan.






- Altitude de l'aérodrome : 42 ft
- Code IATA : LMO


EGQS - Lossiemouth

DERNIER METAR :
  • 201050Z 25018KT 9999 FEW030 10/05 Q1035 NOSIG RMK BLU BLU

METARs EXPIRÉS :
  • 201020Z 24017KT 9999 FEW026 09/05 Q1035 NOSIG RMK BLU BLU
  • 200950Z 23021KT 9999 FEW026 09/05 Q1035 NOSIG RMK BLU BLU
  • 200920Z 23017KT 9999 FEW026 09/04 Q1036 NOSIG RMK BLU BLU
  • 200850Z 22011KT 9999 FEW026 09/04 Q1036 NOSIG RMK BLU BLU
  • 200820Z 23014KT 9999 FEW026 SCT160 09/05 Q1036 NOSIG RMK BLU BLU

TAF AMD TAF EGQS
Valide du 20 à 09h jusqu'au 21 à 03h UTC


200810Z 2009/2103 24012KT 9999 FEW024
TEMPO 2009/2103 25022G35KT
PROB30
TEMPO 2009/2021 SCT024
TEMPO 2021/2103 BKN018
PROB40
TEMPO 2101/2103 6000 -RADZ SCT007 BKN015



MET'MAP, la Météo Aéronautique d'un coup d'oeil ! - Copyright ORBIFLY Décembre 2007 - Disclaimer

ORBIFLY MET'MAP TEAM :

Programmation & Développement : Alexandra Zaïnal
Sur une idée originale de : Baudouin d'Aumeries
Assistance à la programmation : Marc-Olivier Méhu
Soutien technique & logistique : Manuel Goepfert

Contact : metmap@orbifly.com




SOURCES & CREDITS :

   NOAA